sensor_id;sensor_type;location;lat;lon;timestamp;pressure;altitude;pressure_sealevel;temperature;humidity
22389;BME280;11362;48.102;11.620;2023-05-02T00:02:02;95281.13;;;23.19;41.68
22389;BME280;11362;48.102;11.620;2023-05-02T00:04:28;95285.09;;;23.18;41.95
22389;BME280;11362;48.102;11.620;2023-05-02T00:06:53;95281.53;;;23.18;41.70
22389;BME280;11362;48.102;11.620;2023-05-02T00:09:18;95283.53;;;23.17;41.87
22389;BME280;11362;48.102;11.620;2023-05-02T00:11:44;95287.88;;;23.18;41.70
22389;BME280;11362;48.102;11.620;2023-05-02T00:14:09;95285.09;;;23.18;41.71
22389;BME280;11362;48.102;11.620;2023-05-02T00:16:34;95281.53;;;23.18;41.78
22389;BME280;11362;48.102;11.620;2023-05-02T00:18:59;95279.56;;;23.18;41.69
22389;BME280;11362;48.102;11.620;2023-05-02T00:21:25;95284.28;;;23.18;41.57
22389;BME280;11362;48.102;11.620;2023-05-02T00:23:50;95285.09;;;23.18;41.75
22389;BME280;11362;48.102;11.620;2023-05-02T00:26:15;95279.97;;;23.17;41.58
22389;BME280;11362;48.102;11.620;2023-05-02T00:28:41;95282.31;;;23.18;41.76
22389;BME280;11362;48.102;11.620;2023-05-02T00:31:06;95277.97;;;23.17;41.66
22389;BME280;11362;48.102;11.620;2023-05-02T00:33:31;95284.28;;;23.18;41.67
22389;BME280;11362;48.102;11.620;2023-05-02T00:35:57;95281.13;;;23.19;41.58
22389;BME280;11362;48.102;11.620;2023-05-02T00:38:22;95283.53;;;23.17;41.70
22389;BME280;11362;48.102;11.620;2023-05-02T00:40:49;95287.06;;;23.18;41.54
22389;BME280;11362;48.102;11.620;2023-05-02T00:43:15;95278.75;;;23.18;41.72
22389;BME280;11362;48.102;11.620;2023-05-02T00:45:41;95279.97;;;23.17;41.64
22389;BME280;11362;48.102;11.620;2023-05-02T00:48:07;95271.63;;;23.17;41.56
22389;BME280;11362;48.102;11.620;2023-05-02T00:50:35;95269.66;;;23.17;41.59
22389;BME280;11362;48.102;11.620;2023-05-02T00:53:02;95277.97;;;23.17;41.66
22389;BME280;11362;48.102;11.620;2023-05-02T00:55:28;95279.97;;;23.17;41.52
22389;BME280;11362;48.102;11.620;2023-05-02T00:57:53;95272.44;;;23.17;41.71
22389;BME280;11362;48.102;11.620;2023-05-02T01:00:19;95278.75;;;23.18;41.56
22389;BME280;11362;48.102;11.620;2023-05-02T01:02:52;95277.19;;;23.17;41.65
22389;BME280;11362;48.102;11.620;2023-05-02T01:05:26;95274.41;;;23.17;41.28
22389;BME280;11362;48.102;11.620;2023-05-02T01:11:04;95279.19;;;23.16;41.54
22389;BME280;11362;48.102;11.620;2023-05-02T01:13:34;95278.38;;;23.16;41.55
22389;BME280;11362;48.102;11.620;2023-05-02T01:16:01;95276.41;;;23.16;41.38
22389;BME280;11362;48.102;11.620;2023-05-02T01:18:31;95273.66;;;23.16;41.43
22389;BME280;11362;48.102;11.620;2023-05-02T01:21:00;95282.31;;;23.18;41.54
22389;BME280;11362;48.102;11.620;2023-05-02T01:29:06;95279.56;;;23.18;41.40
22389;BME280;11362;48.102;11.620;2023-05-02T01:31:40;95283.53;;;23.17;41.24
22389;BME280;11362;48.102;11.620;2023-05-02T01:34:08;95279.19;;;23.16;41.46
22389;BME280;11362;48.102;11.620;2023-05-02T01:36:35;95283.53;;;23.17;41.41
22389;BME280;11362;48.102;11.620;2023-05-02T01:39:02;95282.31;;;23.18;41.37
22389;BME280;11362;48.102;11.620;2023-05-02T01:41:31;95288.63;;;23.19;41.31
22389;BME280;11362;48.102;11.620;2023-05-02T01:43:57;95284.28;;;23.18;41.24
22389;BME280;11362;48.102;11.620;2023-05-02T01:46:30;95281.53;;;23.18;41.29
22389;BME280;11362;48.102;11.620;2023-05-02T01:48:58;95277.97;;;23.17;41.32
22389;BME280;11362;48.102;11.620;2023-05-02T01:51:31;95283.53;;;23.17;41.36
22389;BME280;11362;48.102;11.620;2023-05-02T01:53:58;95293.03;;;23.16;41.29
22389;BME280;11362;48.102;11.620;2023-05-02T01:56:26;95281.16;;;23.16;41.31
22389;BME280;11362;48.102;11.620;2023-05-02T01:58:55;95296.94;;;23.19;41.13
22389;BME280;11362;48.102;11.620;2023-05-02T02:01:22;95300.16;;;23.17;41.17
22389;BME280;11362;48.102;11.620;2023-05-02T02:03:49;95301.72;;;23.18;41.23
22389;BME280;11362;48.102;11.620;2023-05-02T02:06:14;95295.38;;;23.18;41.05
22389;BME280;11362;48.102;11.620;2023-05-02T02:08:40;95295.38;;;23.18;41.34
22389;BME280;11362;48.102;11.620;2023-05-02T02:11:08;95299.34;;;23.17;41.16
22389;BME280;11362;48.102;11.620;2023-05-02T02:13:44;95300.16;;;23.17;41.22
22389;BME280;11362;48.102;11.620;2023-05-02T02:16:19;95305.69;;;23.17;41.23
22389;BME280;11362;48.102;11.620;2023-05-02T02:18:45;95300.91;;;23.18;41.20
22389;BME280;11362;48.102;11.620;2023-05-02T02:21:15;95313.56;;;23.19;41.27
22389;BME280;11362;48.102;11.620;2023-05-02T02:23:45;95303.69;;;23.18;41.37
22389;BME280;11362;48.102;11.620;2023-05-02T02:26:12;95309.22;;;23.18;41.15
22389;BME280;11362;48.102;11.620;2023-05-02T02:28:38;95314.78;;;23.18;41.35
22389;BME280;11362;48.102;11.620;2023-05-02T02:31:03;95312.00;;;23.18;41.35
22389;BME280;11362;48.102;11.620;2023-05-02T02:33:29;95308.06;;;23.15;41.27
22389;BME280;11362;48.102;11.620;2023-05-02T02:36:08;95316.78;;;23.17;41.34
22389;BME280;11362;48.102;11.620;2023-05-02T02:38:47;95321.53;;;23.17;41.28
22389;BME280;11362;48.102;11.620;2023-05-02T02:41:22;95310.84;;;23.15;41.42
22389;BME280;11362;48.102;11.620;2023-05-02T02:46:33;95315.59;;;23.15;41.29
22389;BME280;11362;48.102;11.620;2023-05-02T02:51:57;95323.09;;;23.14;41.33
22389;BME280;11362;48.102;11.620;2023-05-02T02:54:45;95319.16;;;23.15;41.25
22389;BME280;11362;48.102;11.620;2023-05-02T02:57:16;95329.44;;;23.15;41.29
22389;BME280;11362;48.102;11.620;2023-05-02T02:59:58;95324.69;;;23.15;41.15
22389;BME280;11362;48.102;11.620;2023-05-02T03:02:28;95328.25;;;23.16;41.21
22389;BME280;11362;48.102;11.620;2023-05-02T03:04:56;95331.03;;;23.16;41.26
22389;BME280;11362;48.102;11.620;2023-05-02T03:07:22;95331.41;;;23.14;41.26
22389;BME280;11362;48.102;11.620;2023-05-02T03:09:47;95327.47;;;23.15;41.24
22389;BME280;11362;48.102;11.620;2023-05-02T03:12:12;95337.75;;;23.15;41.14
22389;BME280;11362;48.102;11.620;2023-05-02T03:14:39;95340.91;;;23.17;41.14
22389;BME280;11362;48.102;11.620;2023-05-02T03:17:04;95342.47;;;23.18;41.22
22389;BME280;11362;48.102;11.620;2023-05-02T03:19:30;95344.50;;;23.17;41.20
22389;BME280;11362;48.102;11.620;2023-05-02T03:21:55;95338.16;;;23.17;41.17
22389;BME280;11362;48.102;11.620;2023-05-02T03:24:20;95338.16;;;23.17;41.23
22389;BME280;11362;48.102;11.620;2023-05-02T03:26:45;95343.69;;;23.17;41.25
22389;BME280;11362;48.102;11.620;2023-05-02T03:29:11;95348.81;;;23.18;41.19
22389;BME280;11362;48.102;11.620;2023-05-02T03:31:36;95340.50;;;23.18;41.14
22389;BME280;11362;48.102;11.620;2023-05-02T03:34:01;95344.84;;;23.19;41.02
22389;BME280;11362;48.102;11.620;2023-05-02T03:36:26;95335.75;;;23.19;41.20
22389;BME280;11362;48.102;11.620;2023-05-02T03:38:52;95344.50;;;23.17;41.22
22389;BME280;11362;48.102;11.620;2023-05-02T03:41:17;95341.28;;;23.19;41.17
22389;BME280;11362;48.102;11.620;2023-05-02T03:43:42;95346.81;;;23.19;41.22
22389;BME280;11362;48.102;11.620;2023-05-02T03:46:08;95348.81;;;23.18;41.08
22389;BME280;11362;48.102;11.620;2023-05-02T03:48:34;95354.38;;;23.18;40.94
22389;BME280;11362;48.102;11.620;2023-05-02T03:51:01;95352.75;;;23.21;41.04
22389;BME280;11362;48.102;11.620;2023-05-02T03:53:26;95350.00;;;23.21;41.06
22389;BME280;11362;48.102;11.620;2023-05-02T03:55:51;95358.31;;;23.21;41.12
22389;BME280;11362;48.102;11.620;2023-05-02T03:58:17;95361.84;;;23.21;41.03
22389;BME280;11362;48.102;11.620;2023-05-02T04:00:42;95362.66;;;23.22;40.98
22389;BME280;11362;48.102;11.620;2023-05-02T04:03:07;95367.38;;;23.21;41.08
22389;BME280;11362;48.102;11.620;2023-05-02T04:05:33;95368.19;;;23.22;41.04
22389;BME280;11362;48.102;11.620;2023-05-02T04:07:58;95370.16;;;23.21;40.98
22389;BME280;11362;48.102;11.620;2023-05-02T04:10:23;95372.53;;;23.23;41.00
22389;BME280;11362;48.102;11.620;2023-05-02T04:12:50;95380.84;;;23.23;41.02
22389;BME280;11362;48.102;11.620;2023-05-02T04:15:16;95387.94;;;23.24;41.01
22389;BME280;11362;48.102;11.620;2023-05-02T04:17:41;95376.88;;;23.24;40.95
22389;BME280;11362;48.102;11.620;2023-05-02T04:20:07;95382.41;;;23.24;40.87
22389;BME280;11362;48.102;11.620;2023-05-02T04:22:32;95393.50;;;23.24;40.97
22389;BME280;11362;48.102;11.620;2023-05-02T04:24:58;95391.94;;;23.23;40.83
22389;BME280;11362;48.102;11.620;2023-05-02T04:27:23;95391.94;;;23.23;40.79
22389;BME280;11362;48.102;11.620;2023-05-02T04:29:50;95392.69;;;23.23;40.98
22389;BME280;11362;48.102;11.620;2023-05-02T04:32:15;95397.84;;;23.25;40.92
22389;BME280;11362;48.102;11.620;2023-05-02T04:34:41;95401.41;;;23.25;41.01
22389;BME280;11362;48.102;11.620;2023-05-02T04:37:06;95400.59;;;23.25;40.82
22389;BME280;11362;48.102;11.620;2023-05-02T04:39:32;95400.59;;;23.25;40.80
22389;BME280;11362;48.102;11.620;2023-05-02T04:41:57;95396.63;;;23.26;40.79
22389;BME280;11362;48.102;11.620;2023-05-02T04:44:23;95401.41;;;23.25;40.84
22389;BME280;11362;48.102;11.620;2023-05-02T04:46:48;95411.28;;;23.26;40.86
22389;BME280;11362;48.102;11.620;2023-05-02T04:49:13;95414.84;;;23.27;40.81
22389;BME280;11362;48.102;11.620;2023-05-02T04:51:38;95414.84;;;23.27;40.69
22389;BME280;11362;48.102;11.620;2023-05-02T04:54:04;95400.56;;;23.28;40.80
22389;BME280;11362;48.102;11.620;2023-05-02T04:56:29;95398.19;;;23.27;40.76
22389;BME280;11362;48.102;11.620;2023-05-02T04:58:54;95401.38;;;23.29;41.11
22389;BME280;11362;48.102;11.620;2023-05-02T05:01:20;95433.00;;;23.35;41.29
22389;BME280;11362;48.102;11.620;2023-05-02T05:03:45;95434.06;;;23.44;41.68
22389;BME280;11362;48.102;11.620;2023-05-02T05:06:10;95437.22;;;23.46;42.00
22389;BME280;11362;48.102;11.620;2023-05-02T05:08:36;95444.75;;;23.45;41.97
22389;BME280;11362;48.102;11.620;2023-05-02T05:11:01;95452.25;;;23.48;42.22
22389;BME280;11362;48.102;11.620;2023-05-02T05:13:26;95443.94;;;23.48;42.38
22389;BME280;11362;48.102;11.620;2023-05-02T05:15:51;95445.50;;;23.49;42.54
22389;BME280;11362;48.102;11.620;2023-05-02T05:18:17;95457.38;;;23.50;42.58
22389;BME280;11362;48.102;11.620;2023-05-02T05:20:42;95451.06;;;23.49;42.71
22389;BME280;11362;48.102;11.620;2023-05-02T05:23:07;95459.38;;;23.49;42.66
22389;BME280;11362;48.102;11.620;2023-05-02T05:25:32;95466.13;;;23.48;42.57
22389;BME280;11362;48.102;11.620;2023-05-02T05:27:58;95435.63;;;23.48;42.72
22389;BME280;11362;48.102;11.620;2023-05-02T05:30:24;95439.16;;;23.49;42.73
22389;BME280;11362;48.102;11.620;2023-05-02T05:32:49;95439.56;;;23.47;42.69
22389;BME280;11362;48.102;11.620;2023-05-02T05:35:14;95439.16;;;23.49;42.97
22389;BME280;11362;48.102;11.620;2023-05-02T05:37:40;95458.97;;;23.47;43.13
22389;BME280;11362;48.102;11.620;2023-05-02T05:40:06;95457.41;;;23.46;43.16
22389;BME280;11362;48.102;11.620;2023-05-02T05:42:32;95459.81;;;23.44;43.24
22389;BME280;11362;48.102;11.620;2023-05-02T05:44:57;95489.91;;;23.46;43.31
22389;BME280;11362;48.102;11.620;2023-05-02T05:47:22;95465.34;;;23.44;43.22
22389;BME280;11362;48.102;11.620;2023-05-02T05:49:54;95462.97;;;23.43;43.34
22389;BME280;11362;48.102;11.620;2023-05-02T05:52:20;95474.88;;;23.43;43.48
22389;BME280;11362;48.102;11.620;2023-05-02T05:54:45;95447.56;;;23.42;42.98
22389;BME280;11362;48.102;11.620;2023-05-02T05:57:11;95525.97;;;23.42;43.26
22389;BME280;11362;48.102;11.620;2023-05-02T05:59:36;95531.94;;;23.38;41.52
22389;BME280;11362;48.102;11.620;2023-05-02T06:02:01;95524.56;;;22.63;39.66
22389;BME280;11362;48.102;11.620;2023-05-02T06:04:27;95527.47;;;22.31;39.47
22389;BME280;11362;48.102;11.620;2023-05-02T06:06:52;95530.69;;;22.19;38.75
22389;BME280;11362;48.102;11.620;2023-05-02T06:09:17;95528.78;;;22.06;38.91
22389;BME280;11362;48.102;11.620;2023-05-02T06:11:43;95528.63;;;22.41;39.28
22389;BME280;11362;48.102;11.620;2023-05-02T06:14:08;95533.66;;;22.63;38.85
22389;BME280;11362;48.102;11.620;2023-05-02T06:16:33;95537.91;;;22.78;39.24
22389;BME280;11362;48.102;11.620;2023-05-02T06:18:59;95541.00;;;22.87;39.47
22389;BME280;11362;48.102;11.620;2023-05-02T06:21:24;95539.00;;;22.91;39.35
22389;BME280;11362;48.102;11.620;2023-05-02T06:23:49;95544.53;;;22.95;39.61
22389;BME280;11362;48.102;11.620;2023-05-02T06:26:14;95547.66;;;22.97;39.70
22389;BME280;11362;48.102;11.620;2023-05-02T06:28:40;95543.31;;;22.99;39.69
22389;BME280;11362;48.102;11.620;2023-05-02T06:31:05;95523.50;;;23.01;39.57
22389;BME280;11362;48.102;11.620;2023-05-02T06:33:31;95528.22;;;23.04;39.64
22389;BME280;11362;48.102;11.620;2023-05-02T06:35:57;95521.13;;;23.03;39.77
22389;BME280;11362;48.102;11.620;2023-05-02T06:38:23;95518.72;;;23.05;39.59
22389;BME280;11362;48.102;11.620;2023-05-02T06:40:48;95521.88;;;23.07;39.67
22389;BME280;11362;48.102;11.620;2023-05-02T06:43:14;95525.84;;;23.09;39.75
22389;BME280;11362;48.102;11.620;2023-05-02T06:45:40;95536.09;;;23.12;39.78
22389;BME280;11362;48.102;11.620;2023-05-02T06:48:05;95538.47;;;23.14;39.71
22389;BME280;11362;48.102;11.620;2023-05-02T06:50:31;95531.34;;;23.13;39.94
22389;BME280;11362;48.102;11.620;2023-05-02T06:52:57;95514.28;;;23.14;39.86
22389;BME280;11362;48.102;11.620;2023-05-02T06:55:22;95518.63;;;23.19;40.07
22389;BME280;11362;48.102;11.620;2023-05-02T06:57:48;95522.59;;;23.21;40.06
22389;BME280;11362;48.102;11.620;2023-05-02T07:00:15;95548.31;;;23.22;39.94
22389;BME280;11362;48.102;11.620;2023-05-02T07:02:40;95546.31;;;23.22;40.29
22389;BME280;11362;48.102;11.620;2023-05-02T07:05:06;95558.59;;;23.25;40.34
22389;BME280;11362;48.102;11.620;2023-05-02T07:07:31;95553.41;;;23.27;40.28
22389;BME280;11362;48.102;11.620;2023-05-02T07:09:57;95564.50;;;23.27;40.39
22389;BME280;11362;48.102;11.620;2023-05-02T07:12:22;95554.22;;;23.27;40.40
22389;BME280;11362;48.102;11.620;2023-05-02T07:14:47;95558.91;;;23.30;40.59
22389;BME280;11362;48.102;11.620;2023-05-02T07:17:13;95559.72;;;23.31;40.65
22389;BME280;11362;48.102;11.620;2023-05-02T07:19:38;95554.19;;;23.31;40.58
22389;BME280;11362;48.102;11.620;2023-05-02T07:22:04;95550.59;;;23.33;40.62
22389;BME280;11362;48.102;11.620;2023-05-02T07:24:29;95548.22;;;23.36;40.60
22389;BME280;11362;48.102;11.620;2023-05-02T07:26:54;95555.69;;;23.38;40.72
22389;BME280;11362;48.102;11.620;2023-05-02T07:29:20;95524.00;;;23.39;40.88
22389;BME280;11362;48.102;11.620;2023-05-02T07:31:45;95522.44;;;23.38;40.88
22389;BME280;11362;48.102;11.620;2023-05-02T07:34:10;95536.25;;;23.42;40.83
22389;BME280;11362;48.102;11.620;2023-05-02T07:36:36;95556.47;;;23.42;40.75
22389;BME280;11362;48.102;11.620;2023-05-02T07:39:01;95560.81;;;23.43;40.85
22389;BME280;11362;48.102;11.620;2023-05-02T07:41:26;95560.41;;;23.45;40.93
22389;BME280;11362;48.102;11.620;2023-05-02T07:43:51;95556.44;;;23.46;40.97
22389;BME280;11362;48.102;11.620;2023-05-02T07:46:17;95561.97;;;23.46;40.92
22389;BME280;11362;48.102;11.620;2023-05-02T07:48:43;95562.69;;;23.53;41.00
22389;BME280;11362;48.102;11.620;2023-05-02T07:51:09;95562.31;;;23.51;41.15
22389;BME280;11362;48.102;11.620;2023-05-02T07:53:34;95564.25;;;23.54;41.09
22389;BME280;11362;48.102;11.620;2023-05-02T07:56:00;95571.00;;;23.53;41.24
22389;BME280;11362;48.102;11.620;2023-05-02T07:58:26;95572.97;;;23.56;41.14
22389;BME280;11362;48.102;11.620;2023-05-02T08:00:52;95575.75;;;23.56;41.32
22389;BME280;11362;48.102;11.620;2023-05-02T08:03:17;95572.97;;;23.56;41.31
22389;BME280;11362;48.102;11.620;2023-05-02T08:05:42;95579.31;;;23.57;41.34
22389;BME280;11362;48.102;11.620;2023-05-02T08:08:08;95584.06;;;23.56;41.83
22389;BME280;11362;48.102;11.620;2023-05-02T08:10:33;95587.22;;;23.58;41.45
22389;BME280;11362;48.102;11.620;2023-05-02T08:12:58;95559.88;;;23.57;41.49
22389;BME280;11362;48.102;11.620;2023-05-02T08:15:23;95563.06;;;23.55;41.27
22389;BME280;11362;48.102;11.620;2023-05-02T08:17:49;95589.22;;;23.54;41.07
22389;BME280;11362;48.102;11.620;2023-05-02T08:20:15;95584.44;;;23.58;41.17
22389;BME280;11362;48.102;11.620;2023-05-02T08:22:40;95585.66;;;23.57;41.16
22389;BME280;11362;48.102;11.620;2023-05-02T08:25:06;95590.75;;;23.59;41.22
22389;BME280;11362;48.102;11.620;2023-05-02T08:27:31;95585.63;;;23.61;41.36
22389;BME280;11362;48.102;11.620;2023-05-02T08:29:56;95580.84;;;23.61;41.31
22389;BME280;11362;48.102;11.620;2023-05-02T08:32:22;95586.31;;;23.68;41.31
22389;BME280;11362;48.102;11.620;2023-05-02T08:34:47;95586.72;;;23.70;41.41
22389;BME280;11362;48.102;11.620;2023-05-02T08:37:12;95589.06;;;23.72;41.45
22389;BME280;11362;48.102;11.620;2023-05-02T08:39:38;95600.59;;;23.70;41.41
22389;BME280;11362;48.102;11.620;2023-05-02T08:42:06;95593.88;;;23.68;41.27
22389;BME280;11362;48.102;11.620;2023-05-02T08:44:32;95601.75;;;23.69;41.17
22389;BME280;11362;48.102;11.620;2023-05-02T08:46:59;95595.84;;;23.67;41.40
22389;BME280;11362;48.102;11.620;2023-05-02T08:49:25;95604.56;;;23.66;41.25
22389;BME280;11362;48.102;11.620;2023-05-02T08:51:52;95593.88;;;23.68;41.22
22389;BME280;11362;48.102;11.620;2023-05-02T08:54:19;95600.56;;;23.74;41.15
22389;BME280;11362;48.102;11.620;2023-05-02T08:56:45;95605.72;;;23.72;41.30
22389;BME280;11362;48.102;11.620;2023-05-02T08:59:11;95602.13;;;23.75;41.24
22389;BME280;11362;48.102;11.620;2023-05-02T09:01:39;95611.66;;;23.74;41.13
22389;BME280;11362;48.102;11.620;2023-05-02T09:04:05;95605.31;;;23.73;41.27
22389;BME280;11362;48.102;11.620;2023-05-02T09:06:31;95615.19;;;23.74;41.21
22389;BME280;11362;48.102;11.620;2023-05-02T09:08:58;95611.63;;;23.77;41.32
22389;BME280;11362;48.102;11.620;2023-05-02T09:11:25;95612.41;;;23.78;41.35
22389;BME280;11362;48.102;11.620;2023-05-02T09:13:51;95613.97;;;23.79;41.41
22389;BME280;11362;48.102;11.620;2023-05-02T09:16:18;95620.69;;;23.81;41.46
22389;BME280;11362;48.102;11.620;2023-05-02T09:18:46;95615.53;;;23.80;41.35
22389;BME280;11362;48.102;11.620;2023-05-02T09:21:12;95627.81;;;23.82;41.58
22389;BME280;11362;48.102;11.620;2023-05-02T09:23:40;95616.34;;;23.80;41.65
22389;BME280;11362;48.102;11.620;2023-05-02T09:26:20;95644.06;;;23.80;41.74
22389;BME280;11362;48.102;11.620;2023-05-02T09:28:47;95625.06;;;23.79;41.88
22389;BME280;11362;48.102;11.620;2023-05-02T09:31:17;95624.66;;;23.80;41.86
22389;BME280;11362;48.102;11.620;2023-05-02T09:33:43;95625.88;;;23.79;41.73
22389;BME280;11362;48.102;11.620;2023-05-02T09:36:11;95622.28;;;23.79;41.67
22389;BME280;11362;48.102;11.620;2023-05-02T09:38:37;95629.84;;;23.78;41.53
22389;BME280;11362;48.102;11.620;2023-05-02T09:41:02;95630.59;;;23.79;41.65
22389;BME280;11362;48.102;11.620;2023-05-02T09:43:29;95634.97;;;23.76;41.73
22389;BME280;11362;48.102;11.620;2023-05-02T09:46:08;95629.06;;;23.74;41.72
22389;BME280;11362;48.102;11.620;2023-05-02T09:51:18;95652.84;;;23.75;41.40
22389;BME280;11362;48.102;11.620;2023-05-02T09:53:44;95634.66;;;23.71;41.49
22389;BME280;11362;48.102;11.620;2023-05-02T09:56:10;95651.69;;;23.69;40.80
22389;BME280;11362;48.102;11.620;2023-05-02T09:58:35;95652.50;;;23.66;40.91
22389;BME280;11362;48.102;11.620;2023-05-02T10:01:01;95650.53;;;23.67;40.68
22389;BME280;11362;48.102;11.620;2023-05-02T10:03:27;95653.72;;;23.65;40.80
22389;BME280;11362;48.102;11.620;2023-05-02T10:05:53;95627.59;;;23.63;40.76
22389;BME280;11362;48.102;11.620;2023-05-02T10:08:18;95617.69;;;23.62;40.61
22389;BME280;11362;48.102;11.620;2023-05-02T10:10:50;95624.41;;;23.64;40.64
22389;BME280;11362;48.102;11.620;2023-05-02T10:13:21;95627.97;;;23.65;40.64
22389;BME280;11362;48.102;11.620;2023-05-02T10:15:53;95625.19;;;23.65;40.63
22389;BME280;11362;48.102;11.620;2023-05-02T10:18:26;95631.91;;;23.67;40.88
22389;BME280;11362;48.102;11.620;2023-05-02T10:20:57;95626.34;;;23.67;40.93
22389;BME280;11362;48.102;11.620;2023-05-02T10:23:27;95627.94;;;23.68;40.88
22389;BME280;11362;48.102;11.620;2023-05-02T10:25:53;95625.94;;;23.69;41.00
22389;BME280;11362;48.102;11.620;2023-05-02T10:28:19;95630.69;;;23.68;41.19
22389;BME280;11362;48.102;11.620;2023-05-02T10:30:45;95625.19;;;23.65;41.10
22389;BME280;11362;48.102;11.620;2023-05-02T10:33:12;95630.31;;;23.66;41.19
22389;BME280;11362;48.102;11.620;2023-05-02T10:35:38;95625.97;;;23.65;41.24
22389;BME280;11362;48.102;11.620;2023-05-02T10:38:08;95622.81;;;23.67;41.26
22389;BME280;11362;48.102;11.620;2023-05-02T10:40:34;95622.00;;;23.66;41.41
22389;BME280;11362;48.102;11.620;2023-05-02T10:43:00;95614.88;;;23.65;41.37
22389;BME280;11362;48.102;11.620;2023-05-02T10:45:34;95618.06;;;23.64;41.40
22389;BME280;11362;48.102;11.620;2023-05-02T10:48:17;95619.59;;;23.68;41.43
22389;BME280;11362;48.102;11.620;2023-05-02T10:53:34;95644.97;;;23.70;41.41
22389;BME280;11362;48.102;11.620;2023-05-02T10:56:14;95637.81;;;23.69;41.40
22389;BME280;11362;48.102;11.620;2023-05-02T10:58:44;95636.25;;;23.68;41.20
22389;BME280;11362;48.102;11.620;2023-05-02T11:04:04;95615.63;;;23.69;41.20
22389;BME280;11362;48.102;11.620;2023-05-02T11:06:32;95611.69;;;23.70;41.07
22389;BME280;11362;48.102;11.620;2023-05-02T11:09:29;95612.47;;;23.71;41.16
22389;BME280;11362;48.102;11.620;2023-05-02T11:11:55;95605.34;;;23.70;41.68
22389;BME280;11362;48.102;11.620;2023-05-02T11:14:41;95616.81;;;23.72;41.40
22389;BME280;11362;48.102;11.620;2023-05-02T11:17:08;95617.59;;;23.72;41.33
22389;BME280;11362;48.102;11.620;2023-05-02T11:24:43;95618.03;;;23.67;41.54
22389;BME280;11362;48.102;11.620;2023-05-02T11:30:00;95635.47;;;23.68;41.33
22389;BME280;11362;48.102;11.620;2023-05-02T11:37:41;95614.09;;;23.65;41.61
22389;BME280;11362;48.102;11.620;2023-05-02T11:40:13;95628.75;;;23.65;41.53
22389;BME280;11362;48.102;11.620;2023-05-02T11:42:38;95635.50;;;23.64;41.58
22389;BME280;11362;48.102;11.620;2023-05-02T11:45:04;95623.25;;;23.62;41.54
22389;BME280;11362;48.102;11.620;2023-05-02T11:47:31;95639.47;;;23.63;41.48
22389;BME280;11362;48.102;11.620;2023-05-02T11:49:57;95643.41;;;23.62;41.50
22389;BME280;11362;48.102;11.620;2023-05-02T11:52:23;95662.84;;;23.62;41.46
22389;BME280;11362;48.102;11.620;2023-05-02T11:54:49;95671.16;;;23.62;41.41
22389;BME280;11362;48.102;11.620;2023-05-02T11:57:17;95675.13;;;23.61;41.46
22389;BME280;11362;48.102;11.620;2023-05-02T11:59:53;95665.59;;;23.62;41.53
22389;BME280;11362;48.102;11.620;2023-05-02T12:02:19;95660.50;;;23.61;41.37
22389;BME280;11362;48.102;11.620;2023-05-02T12:04:44;95666.81;;;23.61;41.68
22389;BME280;11362;48.102;11.620;2023-05-02T12:07:10;95657.28;;;23.62;41.46
22389;BME280;11362;48.102;11.620;2023-05-02T12:09:35;95660.88;;;23.63;41.53
22389;BME280;11362;48.102;11.620;2023-05-02T12:12:13;95662.06;;;23.62;41.53
22389;BME280;11362;48.102;11.620;2023-05-02T12:14:39;95653.75;;;23.62;41.56
22389;BME280;11362;48.102;11.620;2023-05-02T12:17:04;95653.75;;;23.62;41.64
22389;BME280;11362;48.102;11.620;2023-05-02T12:19:29;95652.53;;;23.63;41.69
22389;BME280;11362;48.102;11.620;2023-05-02T12:21:55;95643.41;;;23.62;41.54
22389;BME280;11362;48.102;11.620;2023-05-02T12:24:20;95637.06;;;23.65;41.69
22389;BME280;11362;48.102;11.620;2023-05-02T12:26:46;95639.84;;;23.65;41.66
22389;BME280;11362;48.102;11.620;2023-05-02T12:29:11;95640.63;;;23.66;41.57
22389;BME280;11362;48.102;11.620;2023-05-02T12:31:36;95636.72;;;23.63;41.69
22389;BME280;11362;48.102;11.620;2023-05-02T12:34:02;95646.56;;;23.68;41.78
22389;BME280;11362;48.102;11.620;2023-05-02T12:36:27;95651.31;;;23.67;41.69
22389;BME280;11362;48.102;11.620;2023-05-02T12:39:00;95657.22;;;23.69;41.73
22389;BME280;11362;48.102;11.620;2023-05-02T12:41:36;95659.25;;;23.69;41.81
22389;BME280;11362;48.102;11.620;2023-05-02T12:44:02;95669.50;;;23.72;41.66
22389;BME280;11362;48.102;11.620;2023-05-02T12:46:28;95664.34;;;23.74;41.71
22389;BME280;11362;48.102;11.620;2023-05-02T12:49:20;95673.81;;;23.76;41.64
22389;BME280;11362;48.102;11.620;2023-05-02T12:51:52;95673.06;;;23.76;41.71
22389;BME280;11362;48.102;11.620;2023-05-02T12:54:21;95664.31;;;23.77;41.57
22389;BME280;11362;48.102;11.620;2023-05-02T12:56:46;95670.25;;;23.79;41.78
22389;BME280;11362;48.102;11.620;2023-05-02T12:59:25;95675.78;;;23.83;41.71
22389;BME280;11362;48.102;11.620;2023-05-02T13:01:50;95669.41;;;23.82;41.75
22389;BME280;11362;48.102;11.620;2023-05-02T13:04:16;95665.88;;;23.82;41.83
22389;BME280;11362;48.102;11.620;2023-05-02T13:06:41;95668.22;;;23.83;42.00
22389;BME280;11362;48.102;11.620;2023-05-02T13:09:06;95676.53;;;23.83;41.86
22389;BME280;11362;48.102;11.620;2023-05-02T13:11:32;95666.66;;;23.82;42.00
22389;BME280;11362;48.102;11.620;2023-05-02T13:13:57;95664.66;;;23.83;41.95
22389;BME280;11362;48.102;11.620;2023-05-02T13:16:22;95664.66;;;23.83;41.92
22389;BME280;11362;48.102;11.620;2023-05-02T13:18:47;95663.88;;;23.82;41.93
22389;BME280;11362;48.102;11.620;2023-05-02T13:21:13;95663.88;;;23.82;41.95
22389;BME280;11362;48.102;11.620;2023-05-02T13:23:38;95667.06;;;23.81;41.97
22389;BME280;11362;48.102;11.620;2023-05-02T13:26:03;95661.91;;;23.83;41.92